createdAt,value
2018-07-09T00:01:39.710Z,50.60
2018-07-09T00:03:49.813Z,51.57
2018-07-09T00:06:00.039Z,45.73
2018-07-09T00:08:10.626Z,45.03
2018-07-09T00:11:27.037Z,41.03
2018-07-09T00:13:37.586Z,40.20
2018-07-09T00:15:47.562Z,37.07
2018-07-09T00:17:56.918Z,34.73
2018-07-09T00:20:06.290Z,33.47
2018-07-09T00:22:16.001Z,32.63
2018-07-09T00:24:25.794Z,32.67
2018-07-09T00:26:35.492Z,30.83
2018-07-09T00:28:45.664Z,30.47
2018-07-09T00:30:56.518Z,31.97
2018-07-09T00:33:06.439Z,31.43
2018-07-09T00:35:16.223Z,31.63
2018-07-09T00:37:25.883Z,28.87
2018-07-09T00:39:35.571Z,30.90
2018-07-09T00:41:45.834Z,29.23
2018-07-09T00:43:55.428Z,28.60
2018-07-09T00:46:05.437Z,28.07
2018-07-09T00:48:15.236Z,25.00
2018-07-09T00:50:24.539Z,28.03
2018-07-09T00:52:36.468Z,25.27
2018-07-09T00:54:47.681Z,25.95
2018-07-09T00:56:57.682Z,23.80
2018-07-09T01:34:30.340Z,24.50
2018-07-09T01:36:41.013Z,14.17
2018-07-09T01:38:51.055Z,15.50
2018-07-09T01:41:00.912Z,12.83
2018-07-09T01:43:10.362Z,14.37
2018-07-09T01:45:20.863Z,13.97
2018-07-09T02:32:20.097Z,13.27
2018-07-09T02:56:55.362Z,7.77
2018-07-09T02:59:06.468Z,8.10
2018-07-09T03:01:15.745Z,7.67
2018-07-09T03:03:25.245Z,6.90
2018-07-09T03:05:34.839Z,8.17
2018-07-09T03:07:44.314Z,6.57
2018-07-09T03:09:53.685Z,6.53
2018-07-09T03:12:02.870Z,7.40
2018-07-09T03:14:12.539Z,6.23
2018-07-09T03:16:21.900Z,7.37
2018-07-09T03:18:31.149Z,6.40
2018-07-09T03:20:40.455Z,5.80
2018-07-09T03:22:50.097Z,6.00
2018-07-09T03:24:59.686Z,6.30
2018-07-09T03:27:09.428Z,6.00
2018-07-09T03:29:18.798Z,6.03
2018-07-09T03:31:27.986Z,7.03
2018-07-09T03:33:37.170Z,5.83
2018-07-09T03:35:46.529Z,4.90
2018-07-09T03:37:55.876Z,5.70
2018-07-09T03:40:05.171Z,5.40
2018-07-09T03:42:14.686Z,5.10
2018-07-09T03:44:24.434Z,6.20
2018-07-09T03:46:33.695Z,5.13
2018-07-09T03:48:44.040Z,5.83
2018-07-09T03:50:53.323Z,5.03
2018-07-09T03:53:02.599Z,4.67
2018-07-09T03:55:11.629Z,5.80
2018-07-09T03:57:21.060Z,4.47
2018-07-09T03:59:30.488Z,4.97
2018-07-09T04:01:39.881Z,4.40
2018-07-09T04:03:49.245Z,5.70
2018-07-09T04:05:59.646Z,4.40
2018-07-09T04:08:09.291Z,4.03
2018-07-09T04:10:20.168Z,3.60
2018-07-09T04:12:29.322Z,3.63
2018-07-09T04:14:38.725Z,3.93
2018-07-09T04:16:48.171Z,3.80
2018-07-09T04:18:57.580Z,3.77
2018-07-09T04:21:06.770Z,3.70
2018-07-09T04:23:16.237Z,3.70
2018-07-09T04:25:25.741Z,3.87
2018-07-09T04:27:35.918Z,3.13
2018-07-09T04:29:45.664Z,3.57
2018-07-09T04:31:54.823Z,4.40
2018-07-09T04:34:03.992Z,4.13
2018-07-09T04:36:13.194Z,3.87
2018-07-09T04:38:22.305Z,3.33
2018-07-09T04:40:31.488Z,3.50
2018-07-09T04:42:40.817Z,3.80
2018-07-09T04:44:50.804Z,3.97
2018-07-09T04:47:00.210Z,3.67
2018-07-09T04:49:09.549Z,3.70
2018-07-09T04:51:18.855Z,4.00
2018-07-09T04:53:28.437Z,4.10
2018-07-09T04:55:37.722Z,4.13
2018-07-09T04:57:46.963Z,4.80
2018-07-09T04:59:56.346Z,3.70
2018-07-09T05:02:05.561Z,3.20
2018-07-09T05:04:14.964Z,4.03
2018-07-09T05:06:25.069Z,3.80
2018-07-09T05:08:34.318Z,3.63
2018-07-09T05:10:43.373Z,2.90
2018-07-09T05:12:52.815Z,3.80
2018-07-09T05:15:02.145Z,5.00
2018-07-09T05:17:11.187Z,3.90
2018-07-09T05:19:21.173Z,3.43
2018-07-09T05:21:31.062Z,3.20
2018-07-09T05:23:40.499Z,3.53
2018-07-09T05:25:49.680Z,4.10
2018-07-09T05:27:59.440Z,4.30
2018-07-09T05:30:08.720Z,4.43
2018-07-09T05:32:18.165Z,3.53
2018-07-09T05:34:27.865Z,4.30
2018-07-09T05:36:37.566Z,4.03
2018-07-09T05:38:47.293Z,3.83
2018-07-09T05:40:58.466Z,3.47
2018-07-09T05:43:18.012Z,3.60
2018-07-09T05:45:28.931Z,3.20
2018-07-09T05:47:39.849Z,4.00
2018-07-09T05:49:50.557Z,3.47
2018-07-09T05:52:01.266Z,2.87
2018-07-09T05:54:11.555Z,3.30
2018-07-09T05:56:22.297Z,4.03
2018-07-09T05:58:33.324Z,3.60
2018-07-09T06:00:43.971Z,3.37
2018-07-09T06:02:54.806Z,2.87
2018-07-09T06:05:05.186Z,3.73
2018-07-09T06:07:16.455Z,3.70
2018-07-09T06:09:27.396Z,3.03
2018-07-09T06:11:39.748Z,2.93
2018-07-09T06:13:50.835Z,3.43
2018-07-09T06:16:01.544Z,4.03
2018-07-09T06:18:12.355Z,3.20
2018-07-09T06:20:24.323Z,3.23
2018-07-09T06:22:36.528Z,3.83
2018-07-09T06:24:47.774Z,2.60
2018-07-09T06:26:59.597Z,3.10
2018-07-09T06:29:10.570Z,3.00
2018-07-09T06:31:21.819Z,3.27
2018-07-09T06:33:32.371Z,4.13
2018-07-09T06:35:43.162Z,3.03
2018-07-09T06:37:54.189Z,2.70
2018-07-09T06:40:05.357Z,3.33
2018-07-09T06:42:16.300Z,3.67
2018-07-09T06:44:27.168Z,3.23
2018-07-09T06:46:39.330Z,3.07
2018-07-09T06:48:50.443Z,3.03
2018-07-09T06:51:01.421Z,2.40
2018-07-09T06:53:14.135Z,3.03
2018-07-09T06:55:24.817Z,2.60
2018-07-09T06:57:35.227Z,2.80
2018-07-09T06:59:45.823Z,2.97
2018-07-09T07:01:57.517Z,2.77
2018-07-09T07:04:08.280Z,2.70
2018-07-09T07:06:19.195Z,2.50
2018-07-09T07:08:30.830Z,3.53
2018-07-09T07:10:41.615Z,2.30
2018-07-09T07:12:52.592Z,3.60
2018-07-09T07:15:03.132Z,2.83
2018-07-09T07:17:13.434Z,2.67
2018-07-09T07:19:24.905Z,3.13
2018-07-09T07:21:35.394Z,2.50
2018-07-09T07:23:45.999Z,2.90
2018-07-09T07:25:56.691Z,2.63
2018-07-09T07:28:07.458Z,2.70
2018-07-09T07:30:19.901Z,2.50
2018-07-09T07:32:30.469Z,2.60
2018-07-09T07:34:40.989Z,2.63
2018-07-09T07:36:51.445Z,2.57
2018-07-09T07:39:01.688Z,3.17
2018-07-09T07:41:13.037Z,2.70
2018-07-09T07:43:23.517Z,2.73
2018-07-09T07:45:34.100Z,2.90
2018-07-09T07:47:44.351Z,2.70
2018-07-09T07:49:54.720Z,2.30
2018-07-09T07:52:05.062Z,2.87
2018-07-09T07:54:15.650Z,2.90
2018-07-09T07:56:26.004Z,1.97
2018-07-09T07:58:36.614Z,2.90
2018-07-09T08:00:47.001Z,2.50
2018-07-09T08:02:57.422Z,2.20
2018-07-09T08:05:07.649Z,2.77
2018-07-09T08:07:17.954Z,2.20
2018-07-09T08:09:28.255Z,2.17
2018-07-09T08:11:48.554Z,2.77
2018-07-09T08:13:48.950Z,2.10
2018-07-09T08:15:59.368Z,2.60
2018-07-09T08:18:09.679Z,3.50
2018-07-09T08:20:19.954Z,2.23
2018-07-09T08:22:30.430Z,3.43
2018-07-09T08:24:40.611Z,3.33
2018-07-09T08:26:50.763Z,1.87
2018-07-09T08:29:01.219Z,2.17
2018-07-09T08:31:11.823Z,1.83
2018-07-09T08:33:22.724Z,2.07
2018-07-09T08:35:33.221Z,2.20
2018-07-09T08:37:43.529Z,2.47
2018-07-09T08:39:53.768Z,2.03
2018-07-09T08:42:04.174Z,2.17
2018-07-09T08:44:14.414Z,1.83
2018-07-09T08:46:24.972Z,2.23
2018-07-09T08:48:37.492Z,2.30
2018-07-09T08:50:48.443Z,2.30
2018-07-09T08:52:58.518Z,2.00
2018-07-09T08:55:10.251Z,2.07
2018-07-09T08:57:20.664Z,1.67
2018-07-09T08:59:30.994Z,1.70
2018-07-09T09:01:41.152Z,2.20
2018-07-09T09:03:51.544Z,2.10
2018-07-09T09:06:02.265Z,2.00
2018-07-09T09:08:12.677Z,2.20
2018-07-09T09:10:23.039Z,2.03
2018-07-09T09:12:33.373Z,2.37
2018-07-09T09:14:43.628Z,2.10
2018-07-09T09:16:53.706Z,2.23
2018-07-09T09:19:04.080Z,2.13
2018-07-09T09:21:14.807Z,2.50
2018-07-09T09:23:25.206Z,1.90
2018-07-09T09:25:35.336Z,1.83
2018-07-09T09:27:45.606Z,1.63
2018-07-09T09:29:55.912Z,1.93
2018-07-09T09:32:06.153Z,1.57
2018-07-09T09:34:16.551Z,1.90
2018-07-09T09:36:25.285Z,1.70
2018-07-09T09:38:36.300Z,2.23
2018-07-09T09:40:47.961Z,2.60
2018-07-09T09:42:58.468Z,2.40
2018-07-09T09:45:08.708Z,2.53
2018-07-09T09:47:18.983Z,1.73
2018-07-09T09:49:29.300Z,2.07
2018-07-09T09:51:39.927Z,2.10
2018-07-09T09:53:50.059Z,2.03
2018-07-09T09:56:00.211Z,2.67
2018-07-09T09:58:11.196Z,1.60
2018-07-09T10:00:25.611Z,1.80
2018-07-09T10:02:35.745Z,1.87
2018-07-09T10:04:45.783Z,1.83
2018-07-09T10:06:56.380Z,3.70
2018-07-09T10:09:07.652Z,2.77
2018-07-09T10:11:18.403Z,2.07
2018-07-09T10:13:28.833Z,2.10
2018-07-09T10:15:39.177Z,2.77
2018-07-09T10:17:49.574Z,7.43
2018-07-09T10:20:01.247Z,11.30
2018-07-09T10:22:12.118Z,28.03
2018-07-09T10:24:22.575Z,12.50
2018-07-09T10:26:32.930Z,12.57
2018-07-09T10:28:46.321Z,7.57
2018-07-09T10:30:56.774Z,6.57
2018-07-09T10:33:08.525Z,6.33
2018-07-09T10:35:19.224Z,4.77
2018-07-09T10:37:29.869Z,4.50
2018-07-09T10:39:40.512Z,3.70
2018-07-09T10:41:51.172Z,4.47
2018-07-09T10:44:01.561Z,4.00
2018-07-09T10:46:11.830Z,3.20
2018-07-09T10:48:22.626Z,4.10
2018-07-09T10:50:32.823Z,3.90
2018-07-09T10:52:42.847Z,3.90
2018-07-09T10:54:53.046Z,3.30
2018-07-09T10:57:03.464Z,9.63
2018-07-09T10:59:13.909Z,6.07
2018-07-09T11:01:23.960Z,9.00
2018-07-09T11:03:34.774Z,12.50
2018-07-09T11:05:44.895Z,7.43
2018-07-09T11:07:53.989Z,6.27
2018-07-09T11:10:03.119Z,8.83
2018-07-09T11:12:12.703Z,4.10
2018-07-09T11:14:22.004Z,6.50
2018-07-09T11:16:31.953Z,5.17
2018-07-09T11:18:41.479Z,6.10
2018-07-09T11:20:50.846Z,4.30
2018-07-09T11:23:01.581Z,3.90
2018-07-09T11:25:10.977Z,7.53
2018-07-09T11:27:20.218Z,4.97
2018-07-09T11:29:29.320Z,3.87
2018-07-09T11:31:38.459Z,4.23
2018-07-09T11:33:49.399Z,4.13
2018-07-09T11:35:58.465Z,3.20
2018-07-09T11:38:08.540Z,3.43
2018-07-09T12:25:10.998Z,4.70
2018-07-09T12:27:20.324Z,10.10
2018-07-09T12:29:29.453Z,10.10
2018-07-09T12:31:38.731Z,8.53
2018-07-09T12:33:49.850Z,7.97
2018-07-09T12:35:59.171Z,7.20
2018-07-09T12:38:09.917Z,9.53
2018-07-09T12:40:19.496Z,11.63
2018-07-09T12:42:28.796Z,10.73
2018-07-09T12:44:38.210Z,9.53
2018-07-09T12:46:47.849Z,15.67
2018-07-09T13:27:32.841Z,9.40
2018-07-09T13:29:41.268Z,8.27
2018-07-09T13:31:52.019Z,6.70
2018-07-09T13:34:01.110Z,10.10
2018-07-09T13:36:10.011Z,6.50
2018-07-09T13:38:19.228Z,8.30
2018-07-09T13:40:27.816Z,7.80
2018-07-09T13:42:36.828Z,8.20
2018-07-09T13:44:46.153Z,8.40
2018-07-09T13:46:55.573Z,7.83
2018-07-09T13:49:04.593Z,6.25
2018-07-09T13:51:13.427Z,7.17
2018-07-09T13:53:22.271Z,14.27
2018-07-09T13:55:33.282Z,8.67
2018-07-09T13:57:42.117Z,10.43
2018-07-09T13:59:51.214Z,11.53
2018-07-09T14:01:59.897Z,13.67
2018-07-09T14:04:08.731Z,7.00
2018-07-09T14:06:17.396Z,12.60
2018-07-09T14:08:26.309Z,6.60
2018-07-09T14:10:35.290Z,10.47
2018-07-09T14:12:44.183Z,13.03
2018-07-09T14:14:53.163Z,11.47
2018-07-09T14:17:01.979Z,10.07
2018-07-09T14:21:21.300Z,8.00
2018-07-09T14:23:29.974Z,13.07
2018-07-09T14:25:38.990Z,9.70
2018-07-09T14:27:48.017Z,12.80
2018-07-09T14:29:56.849Z,10.70
2018-07-09T14:32:05.568Z,13.80
2018-07-09T14:34:14.525Z,13.80
2018-07-09T14:36:23.304Z,17.07
2018-07-09T14:38:32.137Z,11.47
2018-07-09T14:40:41.391Z,14.67
2018-07-09T14:42:50.342Z,14.73
2018-07-09T14:44:59.080Z,12.60
2018-07-09T14:47:08.018Z,12.50
2018-07-09T15:27:46.964Z,12.23
2018-07-09T16:08:28.038Z,14.30
2018-07-09T16:10:37.341Z,8.80
2018-07-09T16:12:46.297Z,8.07
2018-07-09T16:14:56.156Z,7.40
2018-07-09T16:17:05.165Z,8.13
2018-07-09T16:19:14.262Z,6.77
2018-07-09T16:21:24.651Z,7.07
2018-07-09T16:23:33.289Z,6.93
2018-07-09T16:25:42.013Z,5.83
2018-07-09T16:27:50.606Z,6.00
2018-07-09T16:29:59.242Z,6.40
2018-07-09T16:32:08.270Z,6.50
2018-07-09T16:34:17.225Z,6.00
2018-07-09T16:36:26.134Z,5.13
2018-07-09T16:38:34.876Z,5.60
2018-07-09T16:40:43.822Z,6.87
2018-07-09T16:42:53.115Z,6.23
2018-07-09T17:13:57.888Z,7.80
2018-07-09T17:16:07.869Z,7.13
2018-07-09T17:18:16.741Z,5.37
2018-07-09T17:20:25.581Z,5.83
2018-07-09T17:22:34.385Z,4.53
2018-07-09T17:24:43.061Z,5.63
2018-07-09T17:26:51.947Z,6.47
2018-07-09T17:29:01.667Z,5.43
2018-07-09T17:31:10.833Z,4.83
2018-07-09T17:33:19.820Z,4.37
2018-07-09T17:35:28.563Z,5.07
2018-07-09T17:37:38.572Z,4.20
2018-07-09T17:39:51.608Z,5.00
2018-07-09T17:42:00.522Z,5.47
2018-07-09T17:44:10.295Z,5.47
2018-07-09T17:46:19.214Z,5.33
2018-07-09T17:48:29.151Z,6.07
2018-07-09T17:50:37.966Z,7.03
2018-07-09T18:31:17.344Z,4.97
2018-07-09T18:33:26.649Z,6.53
2018-07-09T18:35:34.003Z,7.00
2018-07-09T18:37:42.823Z,7.63
2018-07-09T18:39:51.949Z,6.97
2018-07-09T18:42:00.602Z,7.20
2018-07-09T18:44:09.885Z,8.27
2018-07-09T18:46:18.552Z,6.70
2018-07-09T18:48:27.499Z,6.90
2018-07-09T18:50:36.274Z,8.00
2018-07-09T18:52:45.265Z,8.43
2018-07-09T18:54:54.015Z,7.63
2018-07-09T18:57:02.760Z,8.10
2018-07-09T18:59:14.764Z,7.30
2018-07-09T19:01:24.396Z,8.63
2018-07-09T19:03:33.151Z,8.23
2018-07-09T19:05:51.916Z,7.43
2018-07-09T19:08:00.612Z,7.50
2018-07-09T19:10:09.349Z,7.17
2018-07-09T19:12:18.219Z,8.10
2018-07-09T19:14:33.261Z,8.00
2018-07-09T19:16:50.251Z,8.17
2018-07-09T19:19:07.233Z,8.90
2018-07-09T19:21:41.503Z,8.80
2018-07-09T19:23:46.675Z,7.53
2018-07-09T19:25:51.969Z,7.70
2018-07-09T19:27:57.079Z,8.80
2018-07-09T19:30:02.107Z,8.40
2018-07-09T19:32:07.497Z,8.60
2018-07-09T19:34:12.663Z,7.90
2018-07-09T19:36:18.074Z,7.97
2018-07-09T19:38:23.052Z,8.73
2018-07-09T19:40:28.683Z,9.00
2018-07-09T19:42:34.107Z,9.13
2018-07-09T19:44:39.330Z,11.40
2018-07-09T19:46:44.419Z,10.30
2018-07-09T19:48:50.334Z,9.33
2018-07-09T19:50:55.619Z,9.50
2018-07-09T19:53:00.684Z,10.50
2018-07-09T19:55:06.007Z,9.63
2018-07-09T19:57:11.008Z,8.87
2018-07-09T19:59:16.107Z,9.87
2018-07-09T20:01:21.447Z,9.20
2018-07-09T20:03:27.753Z,10.30
2018-07-09T20:05:33.316Z,9.53
2018-07-09T20:07:38.749Z,10.00
2018-07-09T20:09:48.103Z,10.40
2018-07-09T20:11:56.408Z,8.80
2018-07-09T20:14:05.701Z,8.70
2018-07-09T20:16:14.989Z,9.17
2018-07-09T20:18:20.648Z,8.93
2018-07-09T20:20:25.669Z,8.20
2018-07-09T20:22:30.756Z,10.27
2018-07-09T20:24:35.893Z,8.80
2018-07-09T20:26:41.188Z,8.97
2018-07-09T20:28:46.256Z,8.80
2018-07-09T20:30:51.591Z,7.63
2018-07-09T20:32:56.870Z,8.73
2018-07-09T20:35:02.438Z,8.70
2018-07-09T20:37:07.500Z,8.07
2018-07-09T20:39:12.636Z,9.20
2018-07-09T20:41:18.430Z,8.27
2018-07-09T20:43:24.130Z,8.10
2018-07-09T20:45:29.232Z,8.60
2018-07-09T20:47:34.570Z,7.17
2018-07-09T20:49:40.256Z,8.03
2018-07-09T20:51:46.112Z,9.67
2018-07-09T20:53:51.821Z,10.27
2018-07-09T20:55:57.577Z,8.60
2018-07-09T20:58:03.494Z,9.23
2018-07-09T21:00:09.792Z,8.80
2018-07-09T21:02:15.433Z,8.67
2018-07-09T21:04:25.015Z,10.03
2018-07-09T21:06:30.858Z,9.77
2018-07-09T21:08:36.604Z,8.90
2018-07-09T21:10:42.073Z,10.03
2018-07-09T21:12:51.614Z,10.37
2018-07-09T21:14:56.755Z,9.57
2018-07-09T21:17:01.923Z,9.13
2018-07-09T21:19:07.150Z,8.90
2018-07-09T21:21:13.425Z,9.00
2018-07-09T21:23:18.582Z,10.70
2018-07-09T21:25:23.568Z,8.53
2018-07-09T21:27:28.753Z,9.67
2018-07-09T21:29:33.893Z,8.93
2018-07-09T21:31:39.281Z,8.37
2018-07-09T21:33:44.884Z,9.80
2018-07-09T21:35:50.145Z,8.90
2018-07-09T21:37:55.286Z,9.23
2018-07-09T21:40:00.451Z,8.73
2018-07-09T21:42:05.917Z,10.27
2018-07-09T21:44:11.136Z,13.43
2018-07-09T21:46:16.414Z,9.83
2018-07-09T21:48:29.782Z,12.37
2018-07-09T21:50:27.129Z,11.80
2018-07-09T21:52:32.397Z,16.83
2018-07-09T21:54:37.545Z,15.87
2018-07-09T21:56:43.097Z,16.00
2018-07-09T21:58:48.183Z,22.80
2018-07-09T22:00:53.259Z,25.30
2018-07-09T22:02:59.518Z,15.10
2018-07-09T22:05:04.726Z,20.27
2018-07-09T22:07:09.927Z,17.40
2018-07-09T22:09:15.292Z,16.13
2018-07-09T22:11:20.554Z,15.00
2018-07-09T22:13:26.017Z,16.00
2018-07-09T22:15:31.210Z,21.77
2018-07-09T22:17:36.271Z,14.70
2018-07-09T22:19:41.316Z,19.10
2018-07-09T22:21:46.827Z,17.07
2018-07-09T22:23:52.321Z,16.10
2018-07-09T22:25:57.293Z,16.97
2018-07-09T22:28:03.554Z,16.53
2018-07-09T22:30:11.105Z,20.73
2018-07-09T22:32:19.941Z,26.27
2018-07-09T22:34:31.916Z,19.40
2018-07-09T22:36:41.205Z,20.53
2018-07-09T22:38:51.498Z,20.40
2018-07-09T22:41:00.589Z,19.25
2018-07-09T22:45:20.246Z,21.27
2018-07-09T22:47:29.040Z,19.17
2018-07-09T22:49:37.822Z,17.50
2018-07-09T22:51:47.347Z,18.70
2018-07-09T22:53:56.715Z,21.27
2018-07-09T22:56:11.264Z,25.70
2018-07-09T22:58:20.552Z,22.43
2018-07-09T23:00:30.136Z,27.07
2018-07-09T23:02:38.836Z,28.57
2018-07-09T23:04:48.183Z,25.93
2018-07-09T23:23:01.130Z,34.98
2018-07-09T23:25:06.585Z,25.17
2018-07-09T23:27:12.110Z,32.90
2018-07-09T23:29:17.443Z,32.77
2018-07-09T23:31:22.767Z,27.10
2018-07-09T23:33:28.133Z,25.43
2018-07-09T23:35:33.564Z,29.10
2018-07-09T23:37:38.676Z,23.97
2018-07-09T23:39:43.847Z,29.70
2018-07-09T23:41:49.513Z,27.70
2018-07-09T23:43:55.817Z,21.07
2018-07-09T23:46:01.070Z,22.60
2018-07-09T23:48:06.336Z,22.90
2018-07-09T23:50:11.443Z,22.77
2018-07-09T23:52:16.534Z,21.30
2018-07-09T23:54:21.900Z,21.43
2018-07-09T23:56:44.077Z,23.63
